Time;durP1;ratioP1;P1;durP2;ratioP2;P2;SDS_P1;SDS_P2;PMS_P1;PMS_P2;Temp;Humidity;BMP_temperature;BMP_pressure;BME280_temperature;BME280_humidity;BME280_pressure;Samples;Min_cycle;Max_cycle;Signal;HPM_P1;HPM_P2
2022/08/06 00:00:14;;;;;;;8.88;3.20;;;;;;;;;;5042173;28;20164;-70
2022/08/06 00:02:40;;;;;;;6.55;3.03;;;;;;;;;;5042082;28;20047;-70
2022/08/06 00:05:05;;;;;;;12.60;3.47;;;;;;;;;;5039982;28;20041;-71
2022/08/06 00:07:31;;;;;;;7.47;3.67;;;;;;;;;;5035326;28;20128;-69
2022/08/06 00:09:56;;;;;;;7.22;3.33;;;;;;;;;;5033964;28;20022;-70
2022/08/06 00:12:21;;;;;;;8.70;3.47;;;;;;;;;;5042701;28;20039;-71
2022/08/06 00:14:46;;;;;;;12.95;3.55;;;;;;;;;;5043695;28;20084;-70
2022/08/06 00:17:12;;;;;;;9.15;3.85;;;;;;;;;;5039355;28;20021;-71
2022/08/06 00:19:37;;;;;;;8.40;3.53;;;;;;;;;;5035015;28;20369;-70
2022/08/06 00:22:02;;;;;;;6.25;3.20;;;;;;;;;;5043096;28;20021;-71
2022/08/06 00:24:28;;;;;;;8.35;3.40;;;;;;;;;;5036982;28;20103;-71
2022/08/06 00:26:53;;;;;;;9.77;3.63;;;;;;;;;;5043526;28;20044;-71
2022/08/06 00:29:18;;;;;;;6.50;3.33;;;;;;;;;;5038695;28;20032;-71
2022/08/06 00:31:44;;;;;;;6.53;3.35;;;;;;;;;;5037836;28;20029;-70
2022/08/06 00:34:09;;;;;;;8.85;3.83;;;;;;;;;;5047033;28;20078;-70
2022/08/06 00:36:34;;;;;;;15.40;3.88;;;;;;;;;;5043473;28;20017;-70
2022/08/06 00:39:01;;;;;;;9.90;3.85;;;;;;;;;;5041330;28;20396;-71
2022/08/06 00:41:28;;;;;;;15.80;4.10;;;;;;;;;;5033635;28;20042;-71
2022/08/06 00:43:53;;;;;;;11.95;4.25;;;;;;;;;;5045066;28;20033;-71
2022/08/06 00:46:18;;;;;;;9.77;4.32;;;;;;;;;;5036229;28;20037;-71
2022/08/06 00:48:44;;;;;;;12.15;4.15;;;;;;;;;;5037804;28;20056;-70
2022/08/06 00:51:09;;;;;;;9.90;4.07;;;;;;;;;;5033893;28;20112;-70
2022/08/06 00:53:36;;;;;;;12.32;4.22;;;;;;;;;;5037696;28;20373;-70
2022/08/06 00:56:02;;;;;;;12.05;4.07;;;;;;;;;;5032590;28;20057;-71
2022/08/06 00:58:28;;;;;;;9.75;4.38;;;;;;;;;;5034579;28;20484;-70
2022/08/06 01:00:53;;;;;;;11.77;4.22;;;;;;;;;;5034287;28;20028;-71
2022/08/06 01:03:18;;;;;;;7.03;4.03;;;;;;;;;;5041656;28;20451;-70
2022/08/06 01:05:44;;;;;;;11.13;4.30;;;;;;;;;;5033653;28;20457;-71
2022/08/06 01:08:10;;;;;;;10.15;4.28;;;;;;;;;;5044207;28;20013;-71
2022/08/06 01:10:35;;;;;;;11.65;4.05;;;;;;;;;;5037418;28;20036;-71
2022/08/06 01:13:00;;;;;;;8.77;4.28;;;;;;;;;;5045551;28;20021;-69
2022/08/06 01:15:26;;;;;;;11.90;4.57;;;;;;;;;;5037449;28;20029;-70
2022/08/06 01:17:56;;;;;;;16.65;4.05;;;;;;;;;;5037155;28;20488;-70
2022/08/06 01:20:40;;;;;;;10.73;4.40;;;;;;;;;;5041304;28;20374;-70
2022/08/06 01:23:23;;;;;;;10.43;4.55;;;;;;;;;;5042449;28;20033;-70
2022/08/06 01:25:59;;;;;;;11.10;3.93;;;;;;;;;;5038556;28;20029;-70
2022/08/06 01:28:26;;;;;;;11.88;4.93;;;;;;;;;;5039490;28;20132;-71
2022/08/06 01:30:54;;;;;;;14.52;5.07;;;;;;;;;;5038438;28;20100;-70
2022/08/06 01:33:25;;;;;;;12.40;4.80;;;;;;;;;;5042025;28;20018;-70
2022/08/06 01:35:52;;;;;;;12.27;5.50;;;;;;;;;;5037646;28;20091;-70
2022/08/06 01:38:22;;;;;;;13.60;4.78;;;;;;;;;;5042831;28;20032;-71
2022/08/06 01:40:49;;;;;;;13.98;4.65;;;;;;;;;;5032771;28;20045;-70
2022/08/06 01:43:16;;;;;;;9.55;3.88;;;;;;;;;;5044438;28;20022;-70
2022/08/06 01:45:42;;;;;;;11.73;4.38;;;;;;;;;;5034364;28;20029;-70
2022/08/06 01:48:10;;;;;;;10.70;5.05;;;;;;;;;;5045954;28;20025;-70
2022/08/06 01:50:37;;;;;;;18.65;5.82;;;;;;;;;;5036996;28;20457;-71
2022/08/06 01:53:05;;;;;;;18.98;4.95;;;;;;;;;;5035647;28;20037;-70
2022/08/06 01:55:32;;;;;;;14.25;5.13;;;;;;;;;;5034472;28;20030;-70
2022/08/06 01:57:59;;;;;;;14.95;5.45;;;;;;;;;;5042068;28;20036;-70
2022/08/06 02:00:25;;;;;;;19.35;5.30;;;;;;;;;;5041046;28;20029;-70
2022/08/06 02:02:50;;;;;;;12.48;4.88;;;;;;;;;;5043791;28;20104;-70
2022/08/06 02:05:18;;;;;;;16.17;5.55;;;;;;;;;;5041912;28;20041;-70
2022/08/06 02:07:45;;;;;;;17.20;5.38;;;;;;;;;;5041501;28;20396;-70
2022/08/06 02:10:11;;;;;;;17.63;5.85;;;;;;;;;;5036050;28;20068;-70
2022/08/06 02:12:39;;;;;;;14.13;5.65;;;;;;;;;;5049028;28;20025;-70
2022/08/06 02:15:06;;;;;;;13.77;5.30;;;;;;;;;;5042050;28;20690;-70
2022/08/06 02:17:33;;;;;;;15.00;5.55;;;;;;;;;;5040494;28;20369;-71
2022/08/06 02:20:01;;;;;;;19.50;5.93;;;;;;;;;;5035827;28;20060;-70
2022/08/06 02:22:32;;;;;;;19.45;5.65;;;;;;;;;;5036453;28;20037;-71
2022/08/06 02:25:00;;;;;;;17.83;5.65;;;;;;;;;;5034570;28;20116;-72
2022/08/06 02:27:26;;;;;;;20.95;5.93;;;;;;;;;;5037276;28;20084;-71
2022/08/06 02:29:53;;;;;;;16.55;5.80;;;;;;;;;;5038849;28;20029;-71
2022/08/06 02:32:19;;;;;;;16.00;5.88;;;;;;;;;;5034825;28;20045;-71
2022/08/06 02:34:44;;;;;;;18.58;5.55;;;;;;;;;;5045331;28;20458;-70
2022/08/06 02:37:20;;;;;;;18.88;5.72;;;;;;;;;;5035937;28;20033;-70
2022/08/06 02:39:48;;;;;;;17.60;5.57;;;;;;;;;;5045191;28;20128;-70
2022/08/06 02:42:26;;;;;;;17.70;6.28;;;;;;;;;;5042769;28;20495;-71
2022/08/06 02:44:59;;;;;;;18.05;5.80;;;;;;;;;;5043606;28;20819;-71
2022/08/06 02:47:27;;;;;;;21.20;6.03;;;;;;;;;;5042339;28;20036;-70
2022/08/06 02:49:54;;;;;;;19.67;5.93;;;;;;;;;;5037836;28;20036;-70
2022/08/06 02:52:25;;;;;;;17.67;5.60;;;;;;;;;;5041936;28;20541;-70
2022/08/06 02:54:56;;;;;;;16.88;5.32;;;;;;;;;;5037259;28;20100;-70
2022/08/06 02:57:24;;;;;;;15.70;5.70;;;;;;;;;;5040801;28;20033;-70
2022/08/06 02:59:52;;;;;;;20.63;6.10;;;;;;;;;;5039572;28;20025;-70
2022/08/06 03:02:19;;;;;;;16.65;6.13;;;;;;;;;;5035689;28;20033;-70
2022/08/06 03:04:47;;;;;;;17.38;6.32;;;;;;;;;;5035977;28;20044;-71
2022/08/06 03:07:13;;;;;;;21.35;6.40;;;;;;;;;;5036795;28;20099;-70
2022/08/06 03:09:41;;;;;;;19.42;6.28;;;;;;;;;;5038680;28;20024;-70
2022/08/06 03:12:07;;;;;;;17.10;5.97;;;;;;;;;;5048075;28;20464;-70
2022/08/06 03:14:34;;;;;;;20.60;6.72;;;;;;;;;;5042878;28;20119;-72
2022/08/06 03:17:00;;;;;;;19.80;5.85;;;;;;;;;;5034465;28;20021;-70
2022/08/06 03:19:26;;;;;;;24.02;6.72;;;;;;;;;;5037886;28;20021;-72
2022/08/06 03:21:52;;;;;;;20.55;5.80;;;;;;;;;;5034610;28;20361;-72
2022/08/06 03:24:18;;;;;;;23.67;6.28;;;;;;;;;;5036954;28;20043;-72
2022/08/06 03:26:44;;;;;;;21.77;6.65;;;;;;;;;;5043669;28;20049;-72
2022/08/06 03:29:09;;;;;;;19.98;6.20;;;;;;;;;;5046482;28;20040;-72
2022/08/06 03:31:34;;;;;;;19.13;6.35;;;;;;;;;;5037829;28;20124;-72
2022/08/06 03:34:01;;;;;;;20.17;7.13;;;;;;;;;;5051038;28;20484;-72
2022/08/06 03:36:26;;;;;;;23.30;6.68;;;;;;;;;;5039443;28;20105;-70
2022/08/06 03:38:57;;;;;;;20.15;6.60;;;;;;;;;;5042600;28;20105;-72
2022/08/06 03:41:24;;;;;;;20.83;6.50;;;;;;;;;;5036725;28;20160;-72
2022/08/06 03:43:49;;;;;;;23.13;6.88;;;;;;;;;;5038895;28;20045;-72
2022/08/06 03:46:17;;;;;;;19.50;5.97;;;;;;;;;;5036139;28;20014;-72
2022/08/06 03:48:43;;;;;;;26.38;7.05;;;;;;;;;;5040693;28;20026;-72
2022/08/06 03:51:13;;;;;;;21.80;6.95;;;;;;;;;;5039361;28;20043;-72
2022/08/06 03:53:40;;;;;;;18.00;6.45;;;;;;;;;;5035913;28;20049;-72
2022/08/06 03:56:07;;;;;;;23.92;7.10;;;;;;;;;;5035873;28;20056;-72
2022/08/06 03:58:32;;;;;;;21.20;6.70;;;;;;;;;;5035859;28;20369;-72
2022/08/06 04:01:02;;;;;;;21.17;6.78;;;;;;;;;;5033879;28;20072;-72
2022/08/06 04:03:28;;;;;;;22.30;6.75;;;;;;;;;;5038378;28;20076;-72
2022/08/06 04:05:54;;;;;;;22.95;7.38;;;;;;;;;;5039147;28;20037;-72
2022/08/06 04:08:19;;;;;;;22.55;6.80;;;;;;;;;;5039989;28;20072;-72
2022/08/06 04:10:48;;;;;;;22.30;6.97;;;;;;;;;;5037197;28;20033;-73
2022/08/06 04:13:15;;;;;;;22.75;7.30;;;;;;;;;;5036194;28;20025;-72
2022/08/06 04:15:41;;;;;;;30.27;7.35;;;;;;;;;;5030254;28;20354;-72
2022/08/06 04:18:16;;;;;;;24.08;7.20;;;;;;;;;;5033762;28;20081;-72
2022/08/06 04:20:47;;;;;;;21.88;6.60;;;;;;;;;;5040237;28;20373;-72
2022/08/06 04:23:13;;;;;;;21.17;6.68;;;;;;;;;;5043855;28;20026;-72
2022/08/06 04:25:40;;;;;;;26.00;6.53;;;;;;;;;;5033891;28;20037;-72
2022/08/06 04:28:06;;;;;;;24.58;7.35;;;;;;;;;;5046676;28;20033;-72
2022/08/06 04:30:33;;;;;;;30.85;7.03;;;;;;;;;;5036026;28;20037;-71
2022/08/06 04:33:00;;;;;;;22.67;7.13;;;;;;;;;;5039401;28;20029;-72
2022/08/06 04:35:25;;;;;;;22.05;7.00;;;;;;;;;;5033929;28;20020;-72
2022/08/06 04:37:51;;;;;;;20.52;6.70;;;;;;;;;;5037435;28;20020;-72
2022/08/06 04:40:16;;;;;;;30.27;7.53;;;;;;;;;;5032903;28;20041;-72
2022/08/06 04:42:42;;;;;;;20.85;6.35;;;;;;;;;;5050946;28;20029;-72
2022/08/06 04:45:08;;;;;;;27.55;7.35;;;;;;;;;;5040203;28;20030;-71
2022/08/06 04:47:34;;;;;;;28.02;7.57;;;;;;;;;;5050634;28;20358;-72
2022/08/06 04:49:59;;;;;;;22.50;7.05;;;;;;;;;;5043090;28;20029;-72
2022/08/06 04:52:26;;;;;;;24.63;7.60;;;;;;;;;;5050006;28;20441;-72
2022/08/06 04:54:51;;;;;;;26.15;6.88;;;;;;;;;;5035049;28;20432;-71
2022/08/06 04:57:17;;;;;;;20.15;6.95;;;;;;;;;;5039851;28;20029;-71
2022/08/06 04:59:42;;;;;;;21.95;7.13;;;;;;;;;;5042593;28;20437;-72
2022/08/06 05:02:08;;;;;;;22.77;7.60;;;;;;;;;;5040143;28;20037;-72
2022/08/06 05:04:33;;;;;;;27.23;7.78;;;;;;;;;;5046633;28;20045;-71
2022/08/06 05:07:17;;;;;;;25.70;7.05;;;;;;;;;;5039834;28;20025;-72
2022/08/06 05:09:43;;;;;;;22.38;6.60;;;;;;;;;;5030433;28;20526;-72
2022/08/06 05:12:18;;;;;;;23.83;7.30;;;;;;;;;;5048207;28;20021;-72
2022/08/06 05:15:02;;;;;;;20.83;6.90;;;;;;;;;;5034290;28;20036;-72
2022/08/06 05:17:33;;;;;;;20.13;6.88;;;;;;;;;;5041366;28;20416;-72
2022/08/06 05:20:11;;;;;;;25.17;7.18;;;;;;;;;;5037193;28;20029;-72
2022/08/06 05:22:36;;;;;;;26.75;7.00;;;;;;;;;;5043621;28;20059;-72
2022/08/06 05:25:03;;;;;;;20.75;6.93;;;;;;;;;;5034267;28;20460;-72
2022/08/06 05:27:28;;;;;;;20.02;6.55;;;;;;;;;;5043308;28;20384;-72
2022/08/06 05:29:54;;;;;;;23.88;6.88;;;;;;;;;;5039489;28;20025;-71
2022/08/06 05:32:20;;;;;;;16.90;7.18;;;;;;;;;;5037380;28;20033;-71
2022/08/06 05:34:46;;;;;;;20.85;7.00;;;;;;;;;;5040985;28;20010;-71
2022/08/06 05:37:11;;;;;;;19.75;6.72;;;;;;;;;;5037637;28;20029;-71
2022/08/06 05:39:36;;;;;;;12.00;5.43;;;;;;;;;;5032378;28;20052;-71
2022/08/06 05:42:02;;;;;;;17.80;5.97;;;;;;;;;;5038323;28;20017;-72
2022/08/06 05:44:27;;;;;;;11.60;5.80;;;;;;;;;;5038363;28;20029;-72
2022/08/06 05:46:55;;;;;;;12.63;5.00;;;;;;;;;;5032123;28;20030;-72
2022/08/06 05:49:21;;;;;;;9.57;4.82;;;;;;;;;;5033035;28;20033;-72
2022/08/06 05:51:49;;;;;;;8.98;4.50;;;;;;;;;;5035047;28;20072;-72
2022/08/06 05:54:18;;;;;;;9.40;4.40;;;;;;;;;;5032919;28;20033;-72
2022/08/06 05:56:44;;;;;;;6.60;4.05;;;;;;;;;;5033246;28;20100;-72
2022/08/06 05:59:20;;;;;;;7.93;4.35;;;;;;;;;;5035832;28;20022;-72
2022/08/06 06:01:47;;;;;;;6.55;4.18;;;;;;;;;;5040374;28;20025;-72
2022/08/06 06:04:13;;;;;;;7.20;4.32;;;;;;;;;;5042805;28;20044;-72
2022/08/06 06:06:38;;;;;;;5.55;3.50;;;;;;;;;;5044748;28;20082;-72
2022/08/06 06:09:05;;;;;;;7.90;4.03;;;;;;;;;;5042123;28;20029;-72
2022/08/06 06:11:31;;;;;;;5.75;3.70;;;;;;;;;;5045616;28;20036;-72
2022/08/06 06:13:56;;;;;;;5.25;3.47;;;;;;;;;;5044372;28;20029;-72
2022/08/06 06:16:28;;;;;;;8.15;3.30;;;;;;;;;;5035539;28;20515;-72
2022/08/06 06:18:59;;;;;;;4.57;3.03;;;;;;;;;;5033459;28;20072;-72
2022/08/06 06:21:34;;;;;;;5.57;2.95;;;;;;;;;;5032313;28;20030;-72
2022/08/06 06:24:19;;;;;;;4.78;2.97;;;;;;;;;;5027261;28;20040;-71
2022/08/06 06:26:57;;;;;;;4.18;2.53;;;;;;;;;;5036294;28;20457;-71
2022/08/06 06:29:42;;;;;;;3.75;2.72;;;;;;;;;;5025602;28;20025;-71
2022/08/06 06:32:18;;;;;;;5.70;2.88;;;;;;;;;;5040784;28;20029;-70
2022/08/06 06:34:53;;;;;;;4.90;2.67;;;;;;;;;;5039969;28;20071;-71
2022/08/06 06:37:38;;;;;;;4.93;2.90;;;;;;;;;;5032584;28;20033;-71
2022/08/06 06:40:25;;;;;;;3.95;2.67;;;;;;;;;;5033114;28;20054;-71
2022/08/06 06:43:10;;;;;;;4.97;2.90;;;;;;;;;;5044925;28;20107;-70
2022/08/06 06:45:42;;;;;;;5.57;2.42;;;;;;;;;;5041372;28;20041;-71
2022/08/06 06:48:18;;;;;;;4.85;3.10;;;;;;;;;;5049970;28;20123;-70
2022/08/06 06:50:47;;;;;;;5.05;2.85;;;;;;;;;;5050036;28;20025;-71
2022/08/06 06:53:14;;;;;;;4.22;3.15;;;;;;;;;;5038897;28;20096;-71
2022/08/06 06:55:44;;;;;;;5.63;3.17;;;;;;;;;;5045113;28;20360;-71
2022/08/06 06:58:39;;;;;;;4.53;3.03;;;;;;;;;;5040333;28;20025;-71
2022/08/06 07:01:06;;;;;;;4.18;2.53;;;;;;;;;;5038511;28;20083;-71
2022/08/06 07:03:33;;;;;;;5.68;3.33;;;;;;;;;;5039055;28;20020;-71
2022/08/06 07:05:59;;;;;;;3.25;2.55;;;;;;;;;;5044514;28;20045;-71
2022/08/06 07:08:25;;;;;;;4.85;3.42;;;;;;;;;;5044465;28;20086;-70
2022/08/06 07:10:51;;;;;;;4.25;2.90;;;;;;;;;;5038455;28;20017;-70
2022/08/06 07:13:18;;;;;;;5.25;3.55;;;;;;;;;;5039932;28;20385;-71
2022/08/06 07:15:44;;;;;;;4.70;3.00;;;;;;;;;;5037602;28;20034;-72
2022/08/06 07:18:09;;;;;;;4.50;3.25;;;;;;;;;;5044546;28;20032;-71
2022/08/06 07:20:35;;;;;;;4.70;2.80;;;;;;;;;;5034229;28;20029;-71
2022/08/06 07:23:03;;;;;;;4.07;2.85;;;;;;;;;;5041642;28;20032;-71
2022/08/06 07:25:29;;;;;;;4.75;3.47;;;;;;;;;;5038911;28;20453;-71
2022/08/06 07:27:54;;;;;;;5.15;3.80;;;;;;;;;;5041001;28;20087;-71
2022/08/06 07:30:20;;;;;;;4.00;2.85;;;;;;;;;;5036514;28;20121;-71
2022/08/06 07:32:46;;;;;;;6.05;3.20;;;;;;;;;;5047779;28;20372;-71
2022/08/06 07:35:12;;;;;;;5.10;3.08;;;;;;;;;;5041596;28;20493;-71
2022/08/06 07:37:40;;;;;;;5.13;3.65;;;;;;;;;;5045088;28;20087;-71
2022/08/06 07:40:06;;;;;;;7.88;3.75;;;;;;;;;;5045843;28;20044;-72
2022/08/06 07:42:33;;;;;;;8.45;3.15;;;;;;;;;;5046565;28;20036;-72
2022/08/06 07:45:00;;;;;;;5.50;3.90;;;;;;;;;;5048329;28;20043;-71
2022/08/06 07:47:27;;;;;;;8.38;4.05;;;;;;;;;;5053408;28;20024;-71
2022/08/06 07:49:55;;;;;;;6.32;3.55;;;;;;;;;;5035161;28;20033;-71
2022/08/06 07:52:21;;;;;;;7.18;4.30;;;;;;;;;;5034099;28;20469;-71
2022/08/06 07:54:46;;;;;;;8.50;3.95;;;;;;;;;;5041141;28;20032;-71
2022/08/06 07:57:13;;;;;;;5.93;3.70;;;;;;;;;;5044066;28;20029;-71
2022/08/06 07:59:39;;;;;;;6.60;3.80;;;;;;;;;;5043155;28;20422;-71
2022/08/06 08:02:05;;;;;;;6.13;3.92;;;;;;;;;;5038308;28;20377;-72
2022/08/06 08:07:14;;;;;;;7.43;3.90;;;;;;;;;;5037083;28;20045;-72
2022/08/06 08:09:41;;;;;;;6.55;4.20;;;;;;;;;;5035564;28;20026;-72
2022/08/06 08:12:07;;;;;;;7.30;3.90;;;;;;;;;;5046276;28;20070;-72
2022/08/06 08:14:33;;;;;;;8.43;4.38;;;;;;;;;;5050088;28;20029;-72
2022/08/06 08:16:59;;;;;;;7.90;3.70;;;;;;;;;;5039782;28;20492;-72
2022/08/06 08:19:31;;;;;;;5.78;3.63;;;;;;;;;;5039897;28;20124;-72
2022/08/06 08:21:58;;;;;;;5.90;3.70;;;;;;;;;;5035313;28;20017;-72
2022/08/06 08:24:24;;;;;;;5.57;3.78;;;;;;;;;;5033456;28;20040;-71
2022/08/06 08:26:49;;;;;;;6.65;4.00;;;;;;;;;;5034068;28;20022;-72
2022/08/06 08:29:14;;;;;;;6.45;3.45;;;;;;;;;;5040867;28;20072;-72
2022/08/06 08:31:40;;;;;;;6.05;3.47;;;;;;;;;;5048830;28;20029;-72
2022/08/06 08:34:05;;;;;;;4.85;3.90;;;;;;;;;;5045698;28;20062;-72
2022/08/06 08:36:30;;;;;;;5.82;3.40;;;;;;;;;;5048003;28;20024;-71
2022/08/06 08:38:57;;;;;;;5.95;3.17;;;;;;;;;;5045542;28;20457;-71
2022/08/06 08:41:27;;;;;;;4.72;3.10;;;;;;;;;;5045003;28;20029;-72
2022/08/06 08:43:59;;;;;;;4.57;2.70;;;;;;;;;;5036927;28;20087;-73
2022/08/06 08:46:26;;;;;;;4.45;2.63;;;;;;;;;;5036079;28;20036;-72
2022/08/06 08:48:52;;;;;;;5.35;2.80;;;;;;;;;;5046643;28;20021;-72
2022/08/06 08:51:17;;;;;;;6.20;2.78;;;;;;;;;;5047678;28;20032;-73
2022/08/06 08:53:44;;;;;;;8.52;2.80;;;;;;;;;;5042796;28;20033;-73
2022/08/06 08:56:11;;;;;;;6.95;2.40;;;;;;;;;;5049080;28;20021;-72
2022/08/06 08:58:38;;;;;;;5.10;2.40;;;;;;;;;;5044990;28;20020;-72
2022/08/06 09:01:08;;;;;;;7.40;2.30;;;;;;;;;;5048087;28;20518;-73
2022/08/06 09:03:37;;;;;;;6.70;2.40;;;;;;;;;;5047598;28;20020;-72
2022/08/06 09:06:03;;;;;;;5.72;2.60;;;;;;;;;;5052645;28;20025;-72
2022/08/06 09:08:30;;;;;;;6.53;2.47;;;;;;;;;;5049604;28;20029;-72
2022/08/06 09:10:55;;;;;;;7.72;2.45;;;;;;;;;;5051218;28;20017;-72
2022/08/06 09:13:23;;;;;;;4.57;2.08;;;;;;;;;;5037880;28;20396;-73
2022/08/06 09:15:48;;;;;;;4.47;2.30;;;;;;;;;;5036127;28;20591;-72
2022/08/06 09:18:13;;;;;;;6.00;1.90;;;;;;;;;;5044943;28;20112;-71
2022/08/06 09:20:39;;;;;;;6.07;2.55;;;;;;;;;;5038235;28;20029;-72
2022/08/06 09:23:04;;;;;;;3.50;2.22;;;;;;;;;;5040501;28;20388;-72
2022/08/06 09:25:36;;;;;;;5.72;2.35;;;;;;;;;;5051828;28;20071;-73
2022/08/06 09:28:02;;;;;;;3.95;2.03;;;;;;;;;;5027729;28;20052;-72
2022/08/06 09:30:27;;;;;;;4.80;2.08;;;;;;;;;;5051824;28;20403;-71
2022/08/06 09:32:55;;;;;;;7.07;2.20;;;;;;;;;;5038331;28;20471;-72
2022/08/06 09:35:28;;;;;;;5.32;2.30;;;;;;;;;;5036434;28;20477;-72
2022/08/06 09:38:01;;;;;;;5.80;2.30;;;;;;;;;;5039608;28;20025;-72
2022/08/06 09:40:26;;;;;;;6.63;2.10;;;;;;;;;;5039646;28;20044;-72
2022/08/06 09:42:52;;;;;;;10.85;2.55;;;;;;;;;;5036856;28;20037;-72
2022/08/06 09:45:20;;;;;;;5.22;2.08;;;;;;;;;;5046169;28;20112;-72
2022/08/06 09:47:45;;;;;;;4.97;2.03;;;;;;;;;;5036876;28;20033;-72
2022/08/06 09:50:11;;;;;;;6.75;2.13;;;;;;;;;;5037313;28;20086;-72
2022/08/06 09:52:36;;;;;;;6.53;2.10;;;;;;;;;;5034465;28;20029;-71
2022/08/06 09:55:02;;;;;;;7.75;2.22;;;;;;;;;;5039174;28;20061;-72
2022/08/06 09:57:41;;;;;;;6.75;2.22;;;;;;;;;;5036147;28;20033;-72
2022/08/06 10:00:08;;;;;;;6.93;2.30;;;;;;;;;;5029808;28;20113;-72
2022/08/06 10:02:34;;;;;;;4.80;1.88;;;;;;;;;;5036181;28;20377;-73
2022/08/06 10:05:09;;;;;;;6.38;1.90;;;;;;;;;;5049086;28;20025;-72
2022/08/06 10:07:34;;;;;;;5.10;1.95;;;;;;;;;;5042820;28;20719;-71
2022/08/06 10:09:59;;;;;;;5.30;2.20;;;;;;;;;;5042058;28;20029;-72
2022/08/06 10:12:25;;;;;;;4.47;1.95;;;;;;;;;;5037491;28;20148;-72
2022/08/06 10:14:50;;;;;;;6.70;2.45;;;;;;;;;;5032194;28;20034;-73
2022/08/06 10:17:17;;;;;;;6.03;2.00;;;;;;;;;;5040531;28;20025;-72
2022/08/06 10:19:43;;;;;;;5.35;2.00;;;;;;;;;;5036317;28;20484;-72
2022/08/06 10:22:10;;;;;;;5.38;2.13;;;;;;;;;;5040315;28;20032;-71
2022/08/06 10:24:37;;;;;;;5.45;2.00;;;;;;;;;;5031935;28;20017;-71
2022/08/06 10:27:06;;;;;;;4.95;2.50;;;;;;;;;;5035358;28;20120;-72
2022/08/06 10:29:32;;;;;;;4.40;1.90;;;;;;;;;;5033079;28;20481;-72
2022/08/06 10:31:58;;;;;;;5.20;2.08;;;;;;;;;;5037945;28;20043;-72
2022/08/06 10:34:25;;;;;;;5.55;2.10;;;;;;;;;;5049464;28;20036;-72
2022/08/06 10:36:55;;;;;;;5.18;2.10;;;;;;;;;;5040001;28;20028;-72
2022/08/06 10:39:25;;;;;;;3.40;1.83;;;;;;;;;;5048335;28;20404;-72
2022/08/06 10:41:51;;;;;;;5.28;1.90;;;;;;;;;;5039277;28;20021;-72
2022/08/06 10:44:16;;;;;;;5.63;2.17;;;;;;;;;;5038009;28;20107;-71
2022/08/06 10:46:42;;;;;;;8.15;2.15;;;;;;;;;;5035030;28;20077;-71
2022/08/06 10:49:08;;;;;;;6.07;2.38;;;;;;;;;;5034865;28;20013;-71
2022/08/06 10:51:33;;;;;;;4.72;2.10;;;;;;;;;;5045055;28;20456;-70
2022/08/06 10:53:58;;;;;;;5.82;2.10;;;;;;;;;;5038482;28;20037;-71
2022/08/06 10:56:26;;;;;;;6.25;1.98;;;;;;;;;;5034337;28;20406;-71
2022/08/06 10:58:52;;;;;;;3.67;1.67;;;;;;;;;;5043047;28;20457;-70
2022/08/06 11:01:21;;;;;;;5.63;2.15;;;;;;;;;;5041001;28;20045;-70
2022/08/06 11:03:55;;;;;;;5.20;2.00;;;;;;;;;;5045229;28;20538;-71
2022/08/06 11:06:39;;;;;;;4.68;1.98;;;;;;;;;;5039737;28;20037;-71
2022/08/06 11:09:17;;;;;;;4.55;1.88;;;;;;;;;;5025909;28;20021;-73
2022/08/06 11:11:42;;;;;;;7.40;1.90;;;;;;;;;;5037298;28;20857;-72
2022/08/06 11:14:09;;;;;;;5.43;1.77;;;;;;;;;;5040041;28;20030;-73
2022/08/06 11:16:35;;;;;;;7.50;1.80;;;;;;;;;;5038095;28;20056;-72
2022/08/06 11:19:02;;;;;;;5.18;2.03;;;;;;;;;;5036479;28;20034;-72
2022/08/06 11:21:54;;;;;;;6.75;2.75;;;;;;;;;;5036390;28;20037;-73
2022/08/06 11:24:19;;;;;;;6.50;2.67;;;;;;;;;;5034195;28;20053;-73
2022/08/06 11:26:45;;;;;;;5.28;2.28;;;;;;;;;;5034452;28;20034;-73
2022/08/06 11:29:15;;;;;;;4.93;2.00;;;;;;;;;;5040904;28;20021;-72
2022/08/06 11:31:49;;;;;;;7.18;2.55;;;;;;;;;;5038073;28;20056;-72
2022/08/06 11:34:16;;;;;;;7.85;2.10;;;;;;;;;;5044919;28;20120;-73
2022/08/06 11:36:43;;;;;;;4.15;2.08;;;;;;;;;;5037414;28;20495;-73
2022/08/06 11:39:09;;;;;;;4.15;2.20;;;;;;;;;;5034963;28;20069;-72
2022/08/06 11:41:43;;;;;;;6.95;2.22;;;;;;;;;;5034916;28;20021;-72
2022/08/06 11:44:09;;;;;;;5.07;2.35;;;;;;;;;;5037214;28;20112;-72
2022/08/06 11:46:41;;;;;;;7.40;2.10;;;;;;;;;;5034806;28;20518;-72
2022/08/06 11:49:13;;;;;;;7.10;2.70;;;;;;;;;;5033811;28;20162;-72
2022/08/06 11:51:42;;;;;;;3.88;2.20;;;;;;;;;;5044414;28;20026;-72
2022/08/06 11:54:17;;;;;;;6.00;1.80;;;;;;;;;;5043226;28;20033;-72
2022/08/06 11:57:06;;;;;;;4.93;1.67;;;;;;;;;;5037876;28;20033;-72
2022/08/06 11:59:36;;;;;;;5.00;1.85;;;;;;;;;;5039461;28;20125;-72
2022/08/06 12:02:03;;;;;;;6.97;2.20;;;;;;;;;;5038430;28;20057;-72
2022/08/06 12:04:31;;;;;;;3.15;1.88;;;;;;;;;;5041271;28;20034;-72
2022/08/06 12:07:16;;;;;;;4.55;1.90;;;;;;;;;;5043372;28;20393;-72
2022/08/06 12:09:43;;;;;;;8.80;2.20;;;;;;;;;;5040508;28;20419;-73
2022/08/06 12:12:23;;;;;;;4.63;2.40;;;;;;;;;;5042076;28;20496;-72
2022/08/06 12:14:49;;;;;;;5.30;2.17;;;;;;;;;;5026473;28;20111;-72
2022/08/06 12:17:14;;;;;;;5.78;1.90;;;;;;;;;;5045878;28;20461;-72
2022/08/06 12:19:44;;;;;;;5.50;1.98;;;;;;;;;;5043765;28;20437;-72
2022/08/06 12:22:09;;;;;;;15.02;2.45;;;;;;;;;;5040136;28;20540;-72
2022/08/06 12:24:35;;;;;;;5.07;1.90;;;;;;;;;;5039895;28;20106;-72
2022/08/06 12:27:00;;;;;;;4.85;1.77;;;;;;;;;;5045524;28;20033;-72
2022/08/06 12:29:29;;;;;;;7.90;2.25;;;;;;;;;;5040691;28;20037;-73
2022/08/06 12:31:54;;;;;;;3.78;2.00;;;;;;;;;;5042304;28;20234;-72
2022/08/06 12:34:27;;;;;;;5.70;1.70;;;;;;;;;;5043803;28;20122;-72
2022/08/06 12:36:52;;;;;;;5.18;2.17;;;;;;;;;;5040613;28;20032;-73
2022/08/06 12:39:18;;;;;;;3.80;1.60;;;;;;;;;;5045952;28;20053;-73
2022/08/06 12:41:43;;;;;;;4.03;1.85;;;;;;;;;;5044501;28;20021;-72
2022/08/06 12:44:08;;;;;;;3.20;1.75;;;;;;;;;;5035375;28;20033;-72
2022/08/06 12:46:34;;;;;;;3.85;1.88;;;;;;;;;;5044354;28;20028;-72
2022/08/06 12:49:00;;;;;;;3.22;1.55;;;;;;;;;;5042584;28;20092;-72
2022/08/06 12:51:25;;;;;;;4.22;1.80;;;;;;;;;;5049650;28;20025;-72
2022/08/06 12:53:52;;;;;;;4.32;2.05;;;;;;;;;;5047336;28;20029;-73
2022/08/06 12:56:18;;;;;;;6.72;1.70;;;;;;;;;;5047061;28;20013;-73
2022/08/06 12:58:44;;;;;;;3.25;2.20;;;;;;;;;;5046535;28;20032;-72
2022/08/06 13:01:16;;;;;;;5.90;1.95;;;;;;;;;;5052380;28;20028;-72
2022/08/06 13:03:43;;;;;;;5.15;2.05;;;;;;;;;;5050118;28;20104;-72
2022/08/06 13:06:09;;;;;;;3.83;2.05;;;;;;;;;;5039124;28;20037;-72
2022/08/06 13:08:35;;;;;;;5.25;1.70;;;;;;;;;;5041910;28;20104;-72
2022/08/06 13:11:01;;;;;;;2.92;1.90;;;;;;;;;;5043277;28;20096;-72
2022/08/06 13:13:39;;;;;;;5.50;2.05;;;;;;;;;;5032480;28;20409;-72
2022/08/06 13:16:07;;;;;;;6.38;2.03;;;;;;;;;;5027453;28;20467;-72
2022/08/06 13:18:32;;;;;;;3.20;1.73;;;;;;;;;;5032324;28;20037;-73
2022/08/06 13:20:58;;;;;;;6.85;1.80;;;;;;;;;;5032278;28;20431;-73
2022/08/06 13:23:27;;;;;;;4.90;1.88;;;;;;;;;;5040214;28;20020;-72
2022/08/06 13:25:53;;;;;;;3.75;1.90;;;;;;;;;;5029289;28;20033;-72
2022/08/06 13:28:20;;;;;;;5.53;1.75;;;;;;;;;;5049048;28;20103;-73
2022/08/06 13:30:46;;;;;;;5.53;2.05;;;;;;;;;;5040559;28;20397;-72
2022/08/06 13:33:15;;;;;;;8.82;1.80;;;;;;;;;;5030869;28;20076;-72
2022/08/06 13:35:41;;;;;;;7.13;1.88;;;;;;;;;;5030546;28;20481;-72
2022/08/06 13:38:09;;;;;;;4.80;2.08;;;;;;;;;;5031980;28;20021;-72
2022/08/06 13:40:45;;;;;;;7.70;1.92;;;;;;;;;;5038004;28;20065;-72
2022/08/06 13:43:11;;;;;;;4.38;1.73;;;;;;;;;;5033930;28;20029;-73
2022/08/06 13:45:36;;;;;;;4.03;1.83;;;;;;;;;;5032842;28;20457;-72
2022/08/06 13:48:03;;;;;;;8.02;2.22;;;;;;;;;;5031879;28;20037;-72
2022/08/06 13:50:29;;;;;;;7.70;2.00;;;;;;;;;;5049176;28;20099;-73
2022/08/06 13:52:54;;;;;;;5.03;2.00;;;;;;;;;;5044792;28;20108;-73
2022/08/06 13:55:26;;;;;;;5.30;1.83;;;;;;;;;;5042126;28;20055;-71
2022/08/06 13:57:52;;;;;;;5.68;1.98;;;;;;;;;;5041349;28;20493;-71
2022/08/06 14:00:18;;;;;;;6.65;1.95;;;;;;;;;;5048962;28;20117;-71
2022/08/06 14:02:44;;;;;;;5.35;2.13;;;;;;;;;;5042475;28;20048;-72
2022/08/06 14:05:09;;;;;;;4.97;1.88;;;;;;;;;;5043257;28;20449;-72
2022/08/06 14:07:35;;;;;;;5.60;1.73;;;;;;;;;;5045570;28;20032;-73
2022/08/06 14:10:00;;;;;;;4.63;2.05;;;;;;;;;;5049184;28;20028;-73
2022/08/06 14:12:25;;;;;;;6.93;2.08;;;;;;;;;;5047888;28;20027;-73
2022/08/06 14:14:51;;;;;;;4.95;1.80;;;;;;;;;;5038983;28;20049;-73
2022/08/06 14:17:16;;;;;;;4.40;1.85;;;;;;;;;;5048889;28;20040;-73
2022/08/06 14:19:42;;;;;;;4.28;1.70;;;;;;;;;;5047218;28;20063;-72
2022/08/06 14:22:07;;;;;;;4.68;1.77;;;;;;;;;;5043221;28;20026;-73
2022/08/06 14:24:33;;;;;;;4.63;1.88;;;;;;;;;;5041787;28;20476;-73
2022/08/06 14:26:59;;;;;;;7.03;1.75;;;;;;;;;;5040732;28;20461;-73
2022/08/06 14:29:24;;;;;;;5.28;1.85;;;;;;;;;;5046162;28;20022;-73
2022/08/06 14:31:50;;;;;;;4.68;1.77;;;;;;;;;;5036968;28;20354;-72
2022/08/06 14:34:16;;;;;;;4.60;1.90;;;;;;;;;;5039924;28;20018;-73
2022/08/06 14:36:41;;;;;;;5.50;1.80;;;;;;;;;;5043063;28;20029;-73
2022/08/06 14:39:11;;;;;;;4.00;1.70;;;;;;;;;;5048539;28;20095;-73
2022/08/06 14:47:04;;;;;;;4.13;2.03;;;;;;;;;;5040518;28;20135;-73
2022/08/06 14:49:29;;;;;;;4.32;1.67;;;;;;;;;;5042358;28;20060;-72